Time;durP1;ratioP1;P1;durP2;ratioP2;P2;SDS_P1;SDS_P2;PMS_P1;PMS_P2;Temp;Humidity;BMP_temperature;BMP_pressure;BME280_temperature;BME280_humidity;BME280_pressure;Samples;Min_cycle;Max_cycle;Signal;HPM_P1;HPM_P2
2021/07/20 00:00:38;;;;;;;552.00;340.73;;;16.30;99.90;;;;;;8294251;28;20492;-64
2021/07/20 00:04:39;;;;;;;551.60;339.60;;;16.20;99.90;;;;;;8271147;28;20057;-64
2021/07/20 00:08:40;;;;;;;569.35;369.98;;;16.10;99.90;;;;;;8293136;28;20057;-64
2021/07/20 00:12:41;;;;;;;563.50;354.45;;;16.30;99.90;;;;;;8294368;28;20319;-64
2021/07/20 00:16:41;;;;;;;554.80;347.52;;;16.10;99.90;;;;;;8293783;28;20034;-64
2021/07/20 00:20:43;;;;;;;571.53;366.63;;;16.20;99.90;;;;;;8294030;28;20034;-64
2021/07/20 00:24:44;;;;;;;582.08;379.13;;;16.40;99.90;;;;;;8294212;28;20022;-64
2021/07/20 00:28:45;;;;;;;575.47;369.23;;;16.20;99.90;;;;;;8276189;28;20112;-64
2021/07/20 00:32:45;;;;;;;584.63;380.90;;;16.00;99.90;;;;;;8293837;28;20034;-64
2021/07/20 00:36:46;;;;;;;582.20;378.35;;;15.90;99.90;;;;;;8292277;28;20493;-64
2021/07/20 00:40:47;;;;;;;586.30;385.55;;;15.70;99.90;;;;;;8293653;28;20030;-64
2021/07/20 00:44:47;;;;;;;586.75;386.27;;;15.80;99.90;;;;;;8293352;28;20022;-64
2021/07/20 00:48:48;;;;;;;590.45;385.40;;;15.60;99.90;;;;;;8293167;28;20028;-64
2021/07/20 00:52:48;;;;;;;595.28;392.60;;;15.60;99.90;;;;;;8283607;28;20028;-64
2021/07/20 00:56:51;;;;;;;606.47;414.75;;;15.50;99.90;;;;;;8292635;28;20038;-64
2021/07/20 01:00:52;;;;;;;600.40;403.00;;;15.40;99.90;;;;;;8274577;28;20030;-64
2021/07/20 01:04:53;;;;;;;605.03;408.00;;;15.40;99.90;;;;;;8292803;28;20048;-64
2021/07/20 01:08:56;;;;;;;582.10;368.52;;;15.40;99.90;;;;;;8284488;28;20018;-64
2021/07/20 01:12:59;;;;;;;571.92;357.20;;;15.60;99.90;;;;;;8291695;28;20022;-64
2021/07/20 01:17:00;;;;;;;558.58;336.92;;;15.20;99.90;;;;;;8292178;28;20036;-64
2021/07/20 01:21:01;;;;;;;554.70;326.70;;;14.90;99.90;;;;;;8292791;28;20032;-63
2021/07/20 01:25:11;;;;;;;558.17;330.63;;;14.80;99.90;;;;;;8292703;28;20502;-63
2021/07/20 01:29:14;;;;;;;569.13;335.17;;;14.70;99.90;;;;;;8272567;28;20041;-64
2021/07/20 01:33:16;;;;;;;561.92;331.52;;;14.70;99.90;;;;;;8292473;28;20543;-64
2021/07/20 01:37:18;;;;;;;569.28;339.67;;;14.60;99.90;;;;;;8292402;28;20026;-64
2021/07/20 01:41:19;;;;;;;572.28;341.75;;;14.80;99.90;;;;;;8292342;28;20022;-63
2021/07/20 01:45:20;;;;;;;574.00;338.98;;;14.60;99.90;;;;;;8291075;28;20034;-63
2021/07/20 01:49:21;;;;;;;565.05;330.02;;;14.40;99.90;;;;;;8283789;28;20117;-63
2021/07/20 01:53:22;;;;;;;564.40;323.33;;;14.30;99.90;;;;;;8272833;28;20026;-64
2021/07/20 01:57:23;;;;;;;553.83;314.55;;;14.20;99.90;;;;;;8291515;28;20523;-64
2021/07/20 02:01:28;;;;;;;558.72;321.38;;;14.30;99.90;;;;;;8274180;28;20030;-64
2021/07/20 02:09:52;;;;;;;546.85;310.58;;;14.30;99.90;;;;;;8290683;28;20036;-63
2021/07/20 02:14:00;;;;;;;552.70;313.35;;;14.20;99.90;;;;;;8290382;28;20076;-64
2021/07/20 02:18:02;;;;;;;546.13;308.13;;;14.20;99.90;;;;;;8291577;28;20034;-63
2021/07/20 02:22:04;;;;;;;554.60;308.05;;;14.10;99.90;;;;;;8294042;28;20025;-63
2021/07/20 02:26:08;;;;;;;555.20;308.55;;;14.20;99.90;;;;;;8265032;28;20671;-64
2021/07/20 02:30:16;;;;;;;551.05;305.85;;;14.30;99.90;;;;;;8264984;28;20029;-64
2021/07/20 02:34:19;;;;;;;542.42;297.77;;;14.00;99.90;;;;;;8279624;28;20068;-64
2021/07/20 02:38:20;;;;;;;547.55;304.23;;;13.80;99.90;;;;;;8296910;28;20030;-64
2021/07/20 02:42:22;;;;;;;552.58;312.17;;;13.80;99.90;;;;;;8297101;28;20026;-64
2021/07/20 02:46:23;;;;;;;558.42;312.77;;;13.90;99.90;;;;;;8296747;28;20404;-64
2021/07/20 02:50:27;;;;;;;549.55;306.55;;;14.20;99.90;;;;;;8297125;28;20116;-64
2021/07/20 02:54:29;;;;;;;555.50;314.75;;;14.00;99.90;;;;;;8289818;28;20680;-64
2021/07/20 02:58:30;;;;;;;557.80;312.92;;;13.80;99.90;;;;;;8295081;28;20449;-64
2021/07/20 03:02:35;;;;;;;555.13;314.83;;;13.80;99.90;;;;;;8296267;28;20030;-64
2021/07/20 03:06:39;;;;;;;554.60;310.38;;;14.10;99.90;;;;;;8294641;28;20022;-64
2021/07/20 03:10:41;;;;;;;566.47;321.95;;;14.00;99.90;;;;;;8291036;28;20021;-64
2021/07/20 03:14:42;;;;;;;551.53;304.30;;;13.90;99.90;;;;;;8292231;28;20038;-64
2021/07/20 03:18:46;;;;;;;552.97;305.00;;;13.70;99.90;;;;;;8293517;28;20496;-64
2021/07/20 03:22:47;;;;;;;552.53;304.90;;;13.80;99.90;;;;;;8295749;28;20102;-64
2021/07/20 03:26:50;;;;;;;557.28;306.20;;;13.70;99.90;;;;;;8295618;28;20039;-63
2021/07/20 03:30:51;;;;;;;554.30;311.38;;;13.80;99.90;;;;;;8278168;28;20057;-64
2021/07/20 03:34:53;;;;;;;550.85;306.00;;;13.60;99.90;;;;;;8280479;28;20025;-63
2021/07/20 03:38:54;;;;;;;549.38;305.17;;;13.40;99.90;;;;;;8295001;28;20018;-64
2021/07/20 03:42:56;;;;;;;543.50;298.63;;;13.40;99.90;;;;;;8269273;28;20030;-63
2021/07/20 03:46:58;;;;;;;568.63;332.30;;;13.50;99.90;;;;;;8259949;28;20145;-64
2021/07/20 03:50:59;;;;;;;541.33;297.42;;;13.70;99.90;;;;;;8292424;28;20393;-63
2021/07/20 03:55:01;;;;;;;548.65;304.90;;;13.50;99.90;;;;;;8294039;28;20499;-63
2021/07/20 03:59:08;;;;;;;540.97;299.70;;;13.30;99.90;;;;;;8294371;28;20505;-63
2021/07/20 04:03:24;;;;;;;550.75;303.55;;;13.30;99.90;;;;;;8294509;28;20030;-64
2021/07/20 04:07:25;;;;;;;545.38;304.05;;;13.50;99.90;;;;;;8268791;28;20030;-64
2021/07/20 04:11:26;;;;;;;553.00;307.15;;;13.40;99.90;;;;;;8294490;28;20087;-63
2021/07/20 04:15:27;;;;;;;545.85;303.88;;;13.50;99.90;;;;;;8277207;28;20484;-64
2021/07/20 04:19:29;;;;;;;564.28;321.45;;;13.50;99.90;;;;;;8294388;28;20034;-64
2021/07/20 04:23:30;;;;;;;564.28;320.33;;;13.60;99.90;;;;;;8294385;28;20397;-64
2021/07/20 04:27:33;;;;;;;562.90;321.63;;;13.50;99.90;;;;;;8293939;28;20113;-63
2021/07/20 04:31:34;;;;;;;560.40;318.45;;;13.70;99.90;;;;;;8293921;28;20028;-63
2021/07/20 04:35:35;;;;;;;562.08;319.95;;;13.90;99.90;;;;;;8294028;28;20030;-64
2021/07/20 04:39:36;;;;;;;563.45;326.80;;;13.80;99.90;;;;;;8292042;28;20026;-63
2021/07/20 04:43:37;;;;;;;565.80;331.58;;;13.90;99.90;;;;;;8292980;28;20080;-64
2021/07/20 04:47:39;;;;;;;567.30;331.80;;;14.00;99.90;;;;;;8285924;28;20431;-64
2021/07/20 04:51:42;;;;;;;569.88;339.75;;;14.20;99.90;;;;;;8289594;28;20517;-64
2021/07/20 04:55:45;;;;;;;568.65;340.50;;;14.30;99.90;;;;;;8271461;28;20034;-68
2021/07/20 04:59:45;;;;;;;559.10;327.92;;;14.40;99.90;;;;;;8261545;28;20046;-67
2021/07/20 05:03:46;;;;;;;546.28;312.63;;;14.60;99.90;;;;;;8267792;28;20022;-68
2021/07/20 05:07:48;;;;;;;568.72;339.92;;;14.70;99.90;;;;;;8292461;28;20057;-67
2021/07/20 05:11:50;;;;;;;558.40;335.95;;;14.90;99.90;;;;;;8291297;28;20484;-68
2021/07/20 05:15:58;;;;;;;567.75;343.30;;;15.10;99.90;;;;;;8286898;28;20037;-68
2021/07/20 05:19:59;;;;;;;570.35;355.05;;;15.30;99.90;;;;;;8248785;28;20030;-69
2021/07/20 05:24:00;;;;;;;578.88;362.92;;;15.60;99.90;;;;;;8291410;28;20030;-63
2021/07/20 05:28:01;;;;;;;595.00;394.90;;;15.90;99.90;;;;;;8291452;28;20030;-63
2021/07/20 05:32:02;;;;;;;585.85;380.17;;;16.20;99.90;;;;;;8292411;28;20026;-64
2021/07/20 05:36:04;;;;;;;598.25;412.77;;;16.30;99.90;;;;;;8292168;28;20192;-63
2021/07/20 05:40:07;;;;;;;597.83;421.63;;;16.60;99.90;;;;;;8292264;28;20048;-64
2021/07/20 05:44:11;;;;;;;590.13;404.42;;;16.80;99.90;;;;;;8290603;28;20029;-62
2021/07/20 05:48:17;;;;;;;604.13;434.00;;;17.00;99.90;;;;;;8285585;28;20037;-64
2021/07/20 05:52:19;;;;;;;569.60;368.90;;;17.10;99.90;;;;;;8291740;28;20030;-63
2021/07/20 05:56:21;;;;;;;599.28;432.85;;;17.30;99.90;;;;;;8273125;28;20034;-63
2021/07/20 06:00:27;;;;;;;586.75;414.30;;;17.50;99.90;;;;;;8291019;28;20048;-63
2021/07/20 06:04:30;;;;;;;610.60;473.83;;;17.70;99.90;;;;;;8281711;28;20396;-64
2021/07/20 06:08:32;;;;;;;599.90;456.58;;;18.00;99.90;;;;;;8297819;28;20168;-63
2021/07/20 06:12:34;;;;;;;600.83;460.50;;;18.30;99.90;;;;;;8298152;28;20385;-62
2021/07/20 06:16:35;;;;;;;602.53;473.63;;;18.50;99.90;;;;;;8287174;28;20524;-64
2021/07/20 06:20:37;;;;;;;584.03;448.20;;;18.70;99.90;;;;;;8297421;28;20022;-63
2021/07/20 06:24:46;;;;;;;583.50;439.73;;;18.90;99.90;;;;;;8297140;28;20032;-63
2021/07/20 06:28:48;;;;;;;616.08;521.70;;;19.20;99.90;;;;;;8297430;28;20037;-63
2021/07/20 06:32:51;;;;;;;618.08;524.72;;;19.30;99.90;;;;;;8291037;28;20072;-63
2021/07/20 06:36:52;;;;;;;619.38;529.70;;;19.50;99.90;;;;;;8296981;28;20500;-63
2021/07/20 06:40:55;;;;;;;622.63;541.22;;;19.50;99.90;;;;;;8295077;28;20559;-64
2021/07/20 06:44:56;;;;;;;618.75;542.13;;;19.70;99.90;;;;;;8276494;28;20492;-64
2021/07/20 06:48:57;;;;;;;623.90;547.97;;;19.90;99.90;;;;;;8272187;28;20105;-63
2021/07/20 06:52:58;;;;;;;614.75;539.33;;;20.00;99.90;;;;;;8293398;28;20026;-64
2021/07/20 06:57:01;;;;;;;598.10;504.25;;;20.20;99.90;;;;;;8293366;28;20038;-64
2021/07/20 07:01:05;;;;;;;601.17;504.92;;;20.20;99.90;;;;;;8280659;28;20117;-64
2021/07/20 07:05:13;;;;;;;602.72;519.83;;;20.20;99.90;;;;;;8281147;28;20030;-64
2021/07/20 07:09:14;;;;;;;598.65;514.35;;;20.30;99.90;;;;;;8263034;28;20666;-64
2021/07/20 07:13:17;;;;;;;595.40;505.40;;;20.50;99.90;;;;;;8278199;28;20032;-64
2021/07/20 07:17:19;;;;;;;638.15;569.08;;;20.80;99.90;;;;;;8271470;28;20170;-64
2021/07/20 07:21:20;;;;;;;602.80;523.70;;;21.00;99.90;;;;;;8289149;28;20050;-64
2021/07/20 07:25:22;;;;;;;609.50;542.15;;;21.00;99.90;;;;;;8279596;28;20033;-64
2021/07/20 07:29:26;;;;;;;666.15;596.05;;;21.20;99.90;;;;;;8260181;28;20423;-64
2021/07/20 07:33:26;;;;;;;671.42;601.13;;;21.30;99.90;;;;;;8285154;28;20088;-64
2021/07/20 07:37:28;;;;;;;671.17;600.97;;;21.40;99.90;;;;;;8278854;28;20031;-64
2021/07/20 07:41:34;;;;;;;684.88;614.50;;;21.40;99.90;;;;;;8283252;28;20117;-63
2021/07/20 07:45:36;;;;;;;670.10;600.47;;;21.70;99.90;;;;;;8261160;28;20070;-65
2021/07/20 07:49:37;;;;;;;634.92;566.75;;;21.50;99.90;;;;;;8263234;28;20464;-65
2021/07/20 07:53:40;;;;;;;675.75;605.85;;;21.60;99.90;;;;;;8279512;28;20427;-64
2021/07/20 07:57:43;;;;;;;647.47;579.40;;;21.70;99.90;;;;;;8264825;28;20033;-64
2021/07/20 08:01:50;;;;;;;638.25;570.35;;;21.80;99.90;;;;;;8268457;28;20506;-63
2021/07/20 08:05:51;;;;;;;690.08;619.97;;;21.80;99.90;;;;;;8281628;28;20437;-64
2021/07/20 08:09:51;;;;;;;708.42;637.55;;;22.00;99.90;;;;;;8278444;28;20027;-64
2021/07/20 08:13:55;;;;;;;653.55;585.20;;;22.20;99.90;;;;;;8261082;28;20041;-64
2021/07/20 08:17:56;;;;;;;614.38;548.10;;;22.30;99.90;;;;;;8279114;28;20644;-64
2021/07/20 08:22:00;;;;;;;640.58;573.28;;;22.70;99.90;;;;;;8279619;28;20030;-64
2021/07/20 08:26:07;;;;;;;655.60;588.13;;;23.20;99.90;;;;;;8261272;28;20030;-63
2021/07/20 08:30:09;;;;;;;693.97;624.75;;;23.30;99.90;;;;;;8277149;28;20026;-65
2021/07/20 08:34:12;;;;;;;658.55;591.00;;;23.50;99.90;;;;;;8286467;28;20025;-63
2021/07/20 08:38:14;;;;;;;667.05;599.38;;;23.80;99.90;;;;;;8276438;28;20468;-64
2021/07/20 08:42:25;;;;;;;657.83;590.83;;;23.80;99.90;;;;;;8277506;28;20026;-64
2021/07/20 08:46:47;;;;;;;657.83;590.58;;;24.10;99.90;;;;;;8260424;28;20030;-64
2021/07/20 08:51:05;;;;;;;653.85;587.30;;;24.40;99.90;;;;;;8285240;28;20021;-64
2021/07/20 08:55:11;;;;;;;642.40;576.28;;;24.60;99.90;;;;;;8280384;28;20029;-63
2021/07/20 08:59:20;;;;;;;654.00;587.38;;;24.40;99.90;;;;;;8259048;28;20030;-64
2021/07/20 09:03:51;;;;;;;684.10;616.17;;;24.60;99.90;;;;;;8261331;28;20103;-64
2021/07/20 09:08:07;;;;;;;685.47;617.55;;;24.70;99.90;;;;;;8275694;28;20443;-63
2021/07/20 09:12:20;;;;;;;703.28;635.00;;;25.00;99.90;;;;;;8275765;28;20444;-64
2021/07/20 09:16:35;;;;;;;681.03;613.55;;;24.90;99.90;;;;;;8280597;28;20411;-64
2021/07/20 09:20:39;;;;;;;688.00;620.60;;;25.20;99.90;;;;;;8276673;28;20018;-64
2021/07/20 09:24:53;;;;;;;670.00;603.35;;;25.30;99.90;;;;;;8274754;28;20076;-64
2021/07/20 09:29:03;;;;;;;668.10;601.13;;;24.90;99.90;;;;;;8258400;28;20034;-63
2021/07/20 09:33:15;;;;;;;648.43;582.33;;;24.60;99.90;;;;;;8279851;28;20026;-65
2021/07/20 09:37:26;;;;;;;651.08;584.20;;;24.90;99.90;;;;;;8275775;28;20262;-63
2021/07/20 09:42:18;;;;;;;652.38;585.58;;;24.50;99.90;;;;;;8275560;28;20030;-64
2021/07/20 09:46:40;;;;;;;670.22;602.13;;;24.10;99.90;;;;;;8248059;28;20026;-64
2021/07/20 09:50:45;;;;;;;611.72;545.80;;;23.60;99.90;;;;;;8259320;28;20058;-63
2021/07/20 09:55:04;;;;;;;579.30;508.60;;;22.90;99.90;;;;;;8259278;28;20018;-69
2021/07/20 09:59:57;;;;;;;603.88;538.78;;;23.30;99.90;;;;;;8241742;28;20476;-69
2021/07/20 10:04:19;;;;;;;642.85;576.08;;;24.30;99.90;;;;;;8246614;28;20034;-69
2021/07/20 10:08:21;;;;;;;667.70;600.67;;;25.50;99.90;;;;;;8284919;28;20023;-69
2021/07/20 10:12:35;;;;;;;722.38;653.40;;;26.10;99.90;;;;;;8275065;28;20032;-69
2021/07/20 10:16:38;;;;;;;679.67;613.25;;;25.90;99.90;;;;;;8280547;28;20038;-69
2021/07/20 10:20:46;;;;;;;690.28;623.55;;;26.10;99.90;;;;;;8273917;28;20022;-69
2021/07/20 10:24:59;;;;;;;808.70;736.10;;;26.70;99.90;;;;;;8273145;28;20037;-64
2021/07/20 10:29:38;;;;;;;801.35;729.55;;;26.90;99.90;;;;;;8274164;28;20022;-64
2021/07/20 10:33:51;;;;;;;763.10;693.55;;;27.00;99.90;;;;;;8277034;28;20033;-65
2021/07/20 10:37:57;;;;;;;769.50;699.63;;;27.50;99.90;;;;;;8274694;28;20507;-64
2021/07/20 10:42:00;;;;;;;805.75;734.20;;;27.50;99.90;;;;;;8276551;28;20507;-64
2021/07/20 10:46:05;;;;;;;778.45;708.17;;;27.80;99.90;;;;;;8280051;28;20080;-65
2021/07/20 10:50:12;;;;;;;815.65;743.30;;;27.70;99.90;;;;;;8280318;28;20098;-64
2021/07/20 10:54:28;;;;;;;737.60;668.60;;;26.70;99.90;;;;;;8279546;28;20031;-65
2021/07/20 10:58:56;;;;;;;684.83;618.65;;;25.70;99.90;;;;;;8278985;28;20034;-64
2021/07/20 11:03:14;;;;;;;676.08;610.85;;;26.50;99.90;;;;;;8265087;28;20025;-65
2021/07/20 11:07:22;;;;;;;673.13;608.10;;;27.40;99.20;;;;;;8279479;28;20026;-64
2021/07/20 11:11:28;;;;;;;647.60;582.45;;;26.80;99.00;;;;;;8278479;28;20035;-64
2021/07/20 11:15:32;;;;;;;630.00;566.00;;;26.00;99.90;;;;;;8262327;28;20114;-64
2021/07/20 11:19:33;;;;;;;606.17;542.58;;;26.00;98.60;;;;;;8278163;28;20049;-66
2021/07/20 11:23:38;;;;;;;613.55;549.83;;;25.90;99.90;;;;;;8282069;28;20045;-65
2021/07/20 11:27:44;;;;;;;631.72;567.38;;;26.10;99.40;;;;;;8277414;28;20028;-65
2021/07/20 11:31:57;;;;;;;647.83;583.47;;;27.30;96.30;;;;;;8260375;28;20022;-64
2021/07/20 11:36:00;;;;;;;660.42;595.30;;;29.20;94.00;;;;;;8269075;28;20033;-64
2021/07/20 11:40:08;;;;;;;655.95;591.15;;;27.90;92.80;;;;;;8279531;28;20045;-65
2021/07/20 11:44:31;;;;;;;722.67;654.67;;;27.50;94.80;;;;;;8280585;28;20085;-65
2021/07/20 11:48:40;;;;;;;741.53;673.55;;;31.20;83.70;;;;;;8278603;28;20378;-64
2021/07/20 11:52:46;;;;;;;804.92;735.13;;;33.20;72.40;;;;;;8283999;28;20045;-66
2021/07/20 11:57:06;;;;;;;879.25;806.10;;;35.70;65.20;;;;;;8275398;28;20109;-65
2021/07/20 12:01:31;;;;;;;857.30;786.42;;;36.90;51.80;;;;;;8269935;28;20084;-66
2021/07/20 12:05:50;;;;;;;878.80;806.78;;;33.40;57.00;;;;;;8284535;28;20038;-65
2021/07/20 12:10:16;;;;;;;989.28;909.63;;;32.40;62.10;;;;;;8279320;28;20030;-65
2021/07/20 12:14:16;;;;;;;1001.88;921.65;;;33.30;62.80;;;;;;8270309;28;20034;-65
2021/07/20 12:18:19;;;;;;;1006.97;926.40;;;34.00;62.70;;;;;;8276647;28;20046;-65
2021/07/20 12:22:19;;;;;;;1016.22;934.90;;;33.60;57.70;;;;;;8287423;28;20488;-65
2021/07/20 12:26:22;;;;;;;1035.22;952.67;;;33.40;61.70;;;;;;8282612;28;20038;-65
2021/07/20 12:30:25;;;;;;;1004.92;924.20;;;34.00;60.00;;;;;;8293795;28;20167;-67
2021/07/20 12:34:26;;;;;;;1002.88;922.15;;;32.60;61.40;;;;;;8278816;28;20057;-67
2021/07/20 12:38:27;;;;;;;1001.72;921.28;;;32.40;60.60;;;;;;8275841;28;20382;-66
2021/07/20 12:42:42;;;;;;;1019.10;937.55;;;33.40;61.10;;;;;;8269712;28;20022;-65
2021/07/20 12:46:43;;;;;;;1043.82;961.08;;;34.30;60.40;;;;;;8280176;28;20061;-65
2021/07/20 12:50:44;;;;;;;1026.00;944.35;;;35.20;56.10;;;;;;8275371;28;20109;-65
2021/07/20 12:54:45;;;;;;;1016.03;934.97;;;34.50;56.00;;;;;;8277697;28;20025;-64
2021/07/20 12:58:48;;;;;;;1014.80;933.58;;;34.90;53.70;;;;;;8258262;28;20026;-65
2021/07/20 13:02:55;;;;;;;1003.75;923.25;;;35.40;52.10;;;;;;8280521;28;20026;-65
2021/07/20 13:06:58;;;;;;;1034.70;952.50;;;34.20;53.40;;;;;;8261510;28;20038;-65
2021/07/20 13:11:00;;;;;;;1066.75;982.80;;;37.90;49.50;;;;;;8259776;28;20050;-65
2021/07/20 13:15:30;;;;;;;1054.57;971.50;;;40.00;44.30;;;;;;8280028;28;20030;-65
2021/07/20 13:19:35;;;;;;;1057.47;974.33;;;38.70;41.90;;;;;;8254862;28;20053;-66
2021/07/20 13:23:41;;;;;;;1070.65;986.53;;;39.40;40.60;;;;;;8280116;28;20025;-65
2021/07/20 13:27:45;;;;;;;1066.00;982.58;;;40.20;39.20;;;;;;8275218;28;20453;-65
2021/07/20 13:31:46;;;;;;;1074.25;989.78;;;39.60;40.90;;;;;;8278729;28;20091;-65
2021/07/20 13:35:47;;;;;;;1083.97;997.30;;;41.00;39.10;;;;;;8277329;28;20033;-65
2021/07/20 13:39:49;;;;;;;1093.63;999.80;;;42.20;36.50;;;;;;8273640;28;20026;-65
2021/07/20 13:43:52;;;;;;;1111.82;999.90;;;41.80;40.80;;;;;;8274493;28;20022;-65
2021/07/20 13:48:01;;;;;;;1104.63;999.90;;;44.00;36.90;;;;;;8273561;28;20042;-65
2021/07/20 13:52:03;;;;;;;1106.93;999.90;;;42.30;36.70;;;;;;8274778;28;20038;-65
2021/07/20 13:56:15;;;;;;;1123.15;999.90;;;42.80;38.20;;;;;;8270793;28;20041;-65
2021/07/20 14:00:17;;;;;;;1161.25;999.90;;;43.70;34.00;;;;;;8283105;28;20691;-65
2021/07/20 14:04:18;;;;;;;1140.07;999.90;;;44.70;34.70;;;;;;8273235;28;20034;-65
2021/07/20 14:08:21;;;;;;;1107.68;999.90;;;42.90;33.20;;;;;;8269313;28;20113;-65
2021/07/20 14:12:22;;;;;;;1127.13;999.90;;;42.50;36.20;;;;;;8269253;28;20489;-65
2021/07/20 14:16:24;;;;;;;1138.47;999.90;;;44.70;33.60;;;;;;8274624;28;20030;-65
2021/07/20 14:20:33;;;;;;;1148.30;999.90;;;44.80;32.30;;;;;;8262680;28;20026;-65
2021/07/20 14:24:34;;;;;;;;;;;45.90;30.40;;;;;;8266100;28;20408;-65
2021/07/20 14:28:34;;;;;;;1144.45;999.90;;;45.60;31.30;;;;;;8290792;28;19921;-65
2021/07/20 14:32:36;;;;;;;1129.88;999.90;;;43.00;30.80;;;;;;8294772;28;20030;-65
2021/07/20 14:36:44;;;;;;;1123.35;999.90;;;41.70;32.50;;;;;;8271222;28;20571;-65
2021/07/20 14:40:45;;;;;;;1076.60;994.78;;;40.20;37.30;;;;;;8265053;28;20030;-65
2021/07/20 14:44:51;;;;;;;1040.30;960.88;;;40.80;33.10;;;;;;8267059;28;20052;-65
2021/07/20 14:48:51;;;;;;;1120.35;999.90;;;40.70;36.20;;;;;;8279914;28;20481;-65
2021/07/20 14:52:56;;;;;;;995.72;919.35;;;39.50;35.90;;;;;;8287829;28;20073;-66
2021/07/20 14:56:57;;;;;;;983.20;907.72;;;37.60;39.30;;;;;;8296380;28;20435;-65
2021/07/20 15:00:57;;;;;;;1029.85;949.70;;;36.80;38.60;;;;;;8296436;28;20030;-66
2021/07/20 15:05:16;;;;;;;1038.10;957.20;;;34.30;45.80;;;;;;8290028;28;20034;-65
2021/07/20 15:09:22;;;;;;;1035.53;955.10;;;34.80;47.70;;;;;;8272468;28;20064;-66
2021/07/20 15:13:24;;;;;;;1033.78;953.83;;;36.20;45.50;;;;;;8296369;28;20540;-66
2021/07/20 15:17:25;;;;;;;1038.97;959.33;;;38.00;42.30;;;;;;8284358;28;20034;-66
2021/07/20 15:21:32;;;;;;;1072.03;990.15;;;39.70;39.70;;;;;;8272334;28;20224;-67
2021/07/20 15:25:33;;;;;;;1057.78;977.03;;;39.10;36.70;;;;;;8278251;28;20029;-65
2021/07/20 15:29:35;;;;;;;1118.30;999.90;;;39.10;40.30;;;;;;8276568;28;20523;-66
2021/07/20 15:33:43;;;;;;;1131.60;999.90;;;40.60;39.10;;;;;;8286299;28;20047;-66
2021/07/20 15:37:45;;;;;;;1113.03;999.90;;;42.50;37.60;;;;;;8286072;28;20026;-66
2021/07/20 15:41:46;;;;;;;1127.03;999.90;;;42.20;34.50;;;;;;8283205;28;20444;-66
2021/07/20 15:45:47;;;;;;;1124.28;999.90;;;42.60;36.30;;;;;;8279010;28;20031;-65
2021/07/20 15:49:48;;;;;;;1131.43;999.90;;;42.90;35.70;;;;;;8282402;28;20035;-66
2021/07/20 15:53:50;;;;;;;1116.40;999.90;;;44.00;34.80;;;;;;8270468;28;20136;-65
2021/07/20 15:57:53;;;;;;;1112.55;999.90;;;42.70;35.90;;;;;;8286668;28;20100;-67
2021/07/20 16:01:55;;;;;;;1110.90;999.90;;;41.70;36.50;;;;;;8294198;28;20456;-67
2021/07/20 16:05:59;;;;;;;1062.03;982.00;;;41.90;36.30;;;;;;8290853;28;20481;-66
2021/07/20 16:10:09;;;;;;;1125.15;999.90;;;40.00;38.00;;;;;;8278717;28;20029;-66
2021/07/20 16:14:10;;;;;;;1084.38;997.53;;;36.20;44.30;;;;;;8293939;28;20030;-66
2021/07/20 16:18:11;;;;;;;1054.38;972.75;;;34.70;47.60;;;;;;8293940;28;20034;-65
2021/07/20 16:22:13;;;;;;;1060.50;979.03;;;37.10;43.60;;;;;;8289260;28;20038;-67
2021/07/20 16:26:15;;;;;;;1059.10;978.13;;;39.50;40.90;;;;;;8293964;28;20541;-66
2021/07/20 16:30:21;;;;;;;1050.70;971.22;;;40.90;38.60;;;;;;8266853;28;20108;-67
2021/07/20 16:34:23;;;;;;;1031.90;953.67;;;41.40;37.80;;;;;;8293631;28;20109;-66
2021/07/20 16:38:25;;;;;;;1002.42;926.45;;;40.20;38.50;;;;;;8280372;28;20030;-66
2021/07/20 16:42:26;;;;;;;1023.05;945.80;;;40.60;37.60;;;;;;8249732;28;20401;-66
2021/07/20 16:46:27;;;;;;;1103.82;999.90;;;39.20;39.20;;;;;;8271241;28;20030;-66
2021/07/20 16:50:28;;;;;;;1113.30;999.90;;;39.20;40.70;;;;;;8280585;28;20113;-66
2021/07/20 16:54:29;;;;;;;1103.53;999.90;;;40.40;38.80;;;;;;8277945;28;20025;-66
2021/07/20 16:58:32;;;;;;;1096.30;999.90;;;40.20;36.90;;;;;;8276869;28;20058;-66
2021/07/20 17:02:33;;;;;;;1082.70;997.33;;;38.70;40.00;;;;;;8273050;28;20108;-65
2021/07/20 17:06:36;;;;;;;1067.50;985.38;;;38.30;40.00;;;;;;8281300;28;20124;-65
2021/07/20 17:10:38;;;;;;;1065.15;983.20;;;37.60;42.30;;;;;;8276572;28;20387;-65
2021/07/20 17:14:38;;;;;;;1067.30;985.58;;;37.90;41.60;;;;;;8291907;28;20028;-65
2021/07/20 17:18:40;;;;;;;1066.00;984.22;;;38.30;40.10;;;;;;8292044;28;20036;-65
2021/07/20 17:22:41;;;;;;;1023.85;945.67;;;37.70;41.60;;;;;;8283971;28;20029;-65
2021/07/20 17:26:45;;;;;;;1050.05;968.90;;;36.50;42.90;;;;;;8292374;28;20030;-64
2021/07/20 17:30:46;;;;;;;1071.05;986.83;;;34.20;47.00;;;;;;8279050;28;20055;-65
2021/07/20 17:34:47;;;;;;;981.40;903.13;;;32.50;50.20;;;;;;8274955;28;20019;-65
2021/07/20 17:38:48;;;;;;;899.00;825.00;;;30.50;53.00;;;;;;8286585;28;20025;-65
2021/07/20 17:42:50;;;;;;;868.10;796.38;;;29.60;55.10;;;;;;8287828;28;20492;-64
2021/07/20 17:46:50;;;;;;;828.50;757.45;;;28.90;57.40;;;;;;8261411;28;20033;-65
2021/07/20 17:50:58;;;;;;;934.83;857.65;;;28.30;59.40;;;;;;8273077;28;20032;-64
2021/07/20 17:55:04;;;;;;;852.22;779.50;;;27.40;61.50;;;;;;8288983;28;20030;-64
2021/07/20 17:59:05;;;;;;;940.97;862.00;;;26.90;63.00;;;;;;8293663;28;20507;-64
2021/07/20 18:03:06;;;;;;;845.20;771.67;;;26.60;64.80;;;;;;8278905;28;20052;-65
2021/07/20 18:07:07;;;;;;;787.20;714.38;;;26.20;64.90;;;;;;8282629;28;20089;-64
2021/07/20 18:11:32;;;;;;;790.28;718.03;;;26.10;65.10;;;;;;8261211;28;20034;-64
2021/07/20 18:15:33;;;;;;;810.67;737.17;;;25.60;67.00;;;;;;8279921;28;20044;-64
2021/07/20 18:19:34;;;;;;;751.83;679.85;;;24.70;69.40;;;;;;8283584;28;20772;-63
2021/07/20 18:23:34;;;;;;;720.92;649.45;;;23.80;74.60;;;;;;8269014;28;20053;-64
2021/07/20 18:27:35;;;;;;;687.97;618.22;;;23.00;77.30;;;;;;8270552;28;20056;-63
2021/07/20 18:31:39;;;;;;;718.50;646.25;;;22.60;80.70;;;;;;8287310;28;20389;-63
2021/07/20 18:35:40;;;;;;;626.60;558.58;;;22.20;84.50;;;;;;8270547;28;20021;-63
2021/07/20 18:39:40;;;;;;;660.63;590.53;;;21.90;87.10;;;;;;8274062;28;20037;-65
2021/07/20 18:43:43;;;;;;;677.65;606.08;;;21.60;88.90;;;;;;8269575;28;20022;-66
2021/07/20 18:47:44;;;;;;;605.35;528.35;;;21.40;90.10;;;;;;8270337;28;20045;-66
2021/07/20 18:51:45;;;;;;;655.97;584.78;;;21.10;91.40;;;;;;8275778;28;20536;-63
2021/07/20 18:55:45;;;;;;;639.75;569.53;;;21.00;92.70;;;;;;8288460;28;20494;-63
2021/07/20 18:59:46;;;;;;;637.47;567.42;;;20.90;94.80;;;;;;8283160;28;20022;-70
2021/07/20 19:03:47;;;;;;;638.75;563.13;;;20.70;97.50;;;;;;8270464;28;20172;-69
2021/07/20 19:07:48;;;;;;;619.30;521.78;;;20.30;99.90;;;;;;8284218;28;20504;-63
2021/07/20 19:11:48;;;;;;;582.92;453.38;;;20.20;99.90;;;;;;8293391;28;20034;-63
2021/07/20 19:15:49;;;;;;;618.60;519.28;;;20.20;99.90;;;;;;8282840;28;20045;-63
2021/07/20 19:19:50;;;;;;;611.30;499.67;;;20.10;99.90;;;;;;8268030;28;20593;-63
2021/07/20 19:23:50;;;;;;;620.63;514.47;;;19.90;99.90;;;;;;8262099;28;20083;-66
2021/07/20 19:27:52;;;;;;;616.15;504.30;;;19.70;99.90;;;;;;8272298;28;20034;-66
2021/07/20 19:31:52;;;;;;;583.88;435.33;;;19.50;99.90;;;;;;8268717;28;20112;-65
2021/07/20 19:35:54;;;;;;;601.08;455.45;;;19.20;99.90;;;;;;8294642;28;20022;-66
2021/07/20 19:39:54;;;;;;;602.75;456.33;;;18.80;99.90;;;;;;8277259;28;20121;-65
2021/07/20 19:43:55;;;;;;;601.20;453.95;;;18.60;99.90;;;;;;8275713;28;20033;-66
2021/07/20 19:47:56;;;;;;;584.33;429.60;;;18.30;99.90;;;;;;8276683;28;20030;-66
2021/07/20 19:51:56;;;;;;;589.20;425.23;;;18.30;99.90;;;;;;8294026;28;20037;-67
2021/07/20 19:55:57;;;;;;;598.13;453.92;;;18.30;99.90;;;;;;8283807;28;20117;-67
2021/07/20 19:59:58;;;;;;;575.00;403.63;;;18.50;99.90;;;;;;8283212;28;20187;-66
2021/07/20 20:03:58;;;;;;;581.83;413.90;;;18.40;99.90;;;;;;8283615;28;20508;-66
2021/07/20 20:07:59;;;;;;;574.92;392.77;;;18.20;99.90;;;;;;8278525;28;20140;-66